Aérodrome :
LOGIN :

S'inscrire | Disclaimer

   EN    FR    IT 

 










Légende :    VFR   VFR Marginal   IFR   IFR Intensif   IFR Très Intensif
Visi : 
Plafond : 
>= 8 km
>= 3000ft
5 à 8 km
1000 à 3000 ft
1500m à 5 km
500 à 1000 ft
800 à 1500m
200 à 500 ft
< 800m
< 200 ft
Symboles :   Orages  Brouillard  Fortes neiges  Fortes précipitations  Vent > 20 kt
SIGMETs :   Divers  Orages  Givrage  Turbulence  Onde Orograph.  Cendres Volcan.







- Altitude de l'aérodrome : 15 ft
- Code IATA : FCO


LIRF - Roma Leonardo da Vinci Fiumicino

DERNIER METAR :
  • 192020Z 08004KT 9999 -DZ SCT025 22/20 Q1017 NOSIG

METARs EXPIRÉS :
  • 191950Z 04006KT 9999 -RA FEW025 SCT035 23/21 Q1017 NOSIG
  • 191920Z 05006KT 9999 -DZ NSC 23/21 Q1018 NOSIG
  • 191850Z 03004KT 9999 -DZ SCT048 23/21 Q1018 NOSIG
  • 191820Z 04005KT 9999 -DZ SCT048 23/22 Q1018 NOSIG

TAF TAF LIRF
Valide du 19 à 18h jusqu'au 21 à 00h UTC


191700Z 1918/2024 VRB06KT 9999 SCT025
TEMPO 1920/2006 4000 SHRA
BECMG 2010/2012 12010KT
BECMG 2018/2020 VRB05KT
TEMPO 2018/2024 RA
Pas de NOTAMs connus pour ce terrain.



MET'MAP, la Météo Aéronautique d'un coup d'oeil ! - Copyright ORBIFLY Décembre 2007 - Disclaimer

ORBIFLY MET'MAP TEAM :

Programmation & Développement : Alexandra Zaïnal
Conception & Développement : Baudouin d'Aumeries
Co-Programmation & Développement : Marc-Olivier Méhu
Soutien technique & logistique : Manuel Goepfert

Contact : metmap@orbifly.com




SOURCES & CREDITS :

   NOAA